Sunflower Gold — JD2460 — position and weather

sailwx.info

Track history (hours):
 
Tides and Currents Weather Stations Pressure Air Temp Water Temp Dewpoint Dewpoint Depression Visibility Wind Speed Wind Dir Waves Ship Positions

Sunflower Gold

Last reported at 2016-Apr-29 12:16 UTC. Time now 2016-Apr-30 03:20 UTC.
Position N 34°35' E 134°52'.

Length 166 m; draft 5.8 m.

Type: Passenger vessel. MMSI: 431000331.

Date/timePositionNaut miles runAvg speedWind from/ knotsBaromVisibWave heightAir tempDewpointWater temp
2016-Apr-29 12:16N 34°35' E 134°52'1318.6
2016-Apr-29 11:33N 34°36' E 135°08'10 9.6
2016-Apr-29 10:33N 34°42' E 135°17'0 0.0
2016-Apr-29 09:29N 34°42' E 135°17'0 0.0
2016-Apr-29 08:29N 34°42' E 135°17'0 0.0
2016-Apr-29 07:29N 34°42' E 135°17'0 0.0
2016-Apr-29 06:29N 34°42' E 135°17'0 0.0
2016-Apr-29 05:29N 34°42' E 135°17'0 0.0
2016-Apr-29 04:05N 34°42' E 135°17'0 0.0
2016-Apr-29 03:29N 34°42' E 135°17'0 0.0
2016-Apr-29 02:11N 34°42' E 135°17'0 0.0
2016-Apr-29 01:29N 34°42' E 135°17'0 0.0
2016-Apr-29 00:29N 34°42' E 135°17'0 0.0
2016-Apr-28 23:23N 34°42' E 135°17'0 0.0
2016-Apr-28 22:29N 34°42' E 135°17'0 0.0
2016-Apr-28 21:32N 34°42' E 135°17'1212.4
2016-Apr-28 20:33N 34°34' E 135°06'12 0.4
2016-Apr-27 11:26N 34°35' E 134°51'1719.8
2016-Apr-27 10:33N 34°37' E 135°12'6 5.1
2016-Apr-27 09:19N 34°42' E 135°17'0 0.0
2016-Apr-27 08:19N 34°42' E 135°17'0 0.0
2016-Apr-27 07:25N 34°42' E 135°17'0 0.0
2016-Apr-27 06:31N 34°42' E 135°17'0 0.0
2016-Apr-27 05:31N 34°42' E 135°17'0 0.0
2016-Apr-27 04:25N 34°42' E 135°17'0 0.0
2016-Apr-27 03:31N 34°42' E 135°17'0 0.0
2016-Apr-27 02:31N 34°42' E 135°17'0 0.0
2016-Apr-27 01:31N 34°42' E 135°17'0 0.0
2016-Apr-27 00:25N 34°42' E 135°17'0 0.0
2016-Apr-26 23:31N 34°42' E 135°17'0 0.0
2016-Apr-26 22:31N 34°42' E 135°17'0 0.0
2016-Apr-26 21:33N 34°42' E 135°17'1110.6
2016-Apr-26 20:33N 34°34' E 135°08'14 0.4
2016-Apr-25 11:24N 34°35' E 134°52'1720.3
2016-Apr-25 10:33N 34°37' E 135°13'6 6.2
2016-Apr-25 09:32N 34°42' E 135°17'0 0.0
2016-Apr-25 08:32N 34°42' E 135°17'0 0.0
2016-Apr-25 07:14N 34°42' E 135°17'0 0.0
2016-Apr-25 06:32N 34°42' E 135°17'0 0.0
2016-Apr-25 05:26N 34°42' E 135°17'0 0.0
2016-Apr-25 04:32N 34°42' E 135°17'0 0.0
2016-Apr-25 03:32N 34°42' E 135°17'0 0.0
2016-Apr-25 02:32N 34°42' E 135°17'0 0.0
2016-Apr-25 01:32N 34°42' E 135°17'0 0.0
2016-Apr-25 00:32N 34°42' E 135°17'0 0.0
2016-Apr-24 23:32N 34°42' E 135°17'0 0.0
2016-Apr-24 22:32N 34°42' E 135°17'0 0.0
2016-Apr-24 21:33N 34°42' E 135°17'1211.9
2016-Apr-24 20:33N 34°34' E 135°06'15 0.5
2016-Apr-23 12:18N 34°34' E 134°48'1621.3
2016-Apr-23 11:33N 34°36' E 135°07'10 9.8
2016-Apr-23 10:33N 34°42' E 135°17'0 0.0
2016-Apr-23 09:31N 34°42' E 135°17'0 0.0
2016-Apr-23 08:31N 34°42' E 135°17'0 0.0
2016-Apr-23 07:13N 34°42' E 135°17'0 0.0
2016-Apr-23 06:25N 34°42' E 135°17'0 0.0
2016-Apr-23 04:31N 34°42' E 135°17'0 0.0
2016-Apr-23 03:31N 34°42' E 135°17'0 0.0
2016-Apr-23 02:31N 34°42' E 135°17'0 0.0
2016-Apr-23 01:28N 34°42' E 135°17'0 0.0
2016-Apr-23 00:28N 34°42' E 135°17'0 0.0
2016-Apr-22 23:34N 34°42' E 135°17'2 2.1
2016-Apr-22 22:34N 34°40' E 135°18'1414.2
2016-Apr-22 21:34N 34°36' E 135°02'11 0.3
2016-Apr-21 11:25N 34°34' E 134°49'1821.5
2016-Apr-21 10:33N 34°36' E 135°11'7 7.3
2016-Apr-21 09:33N 34°42' E 135°17'0 0.0
2016-Apr-21 08:33N 34°42' E 135°17'0 0.0
2016-Apr-21 07:33N 34°42' E 135°17'0 0.0
2016-Apr-21 06:33N 34°42' E 135°17'0 0.0
2016-Apr-21 05:33N 34°42' E 135°17'0 0.0
2016-Apr-21 04:33N 34°42' E 135°17'0 0.0
2016-Apr-21 03:33N 34°42' E 135°17'0 0.0
2016-Apr-21 02:27N 34°42' E 135°17'0 0.0
2016-Apr-21 01:33N 34°42' E 135°17'0 0.0
2016-Apr-21 00:33N 34°42' E 135°17'0 0.0
2016-Apr-20 23:33N 34°42' E 135°17'0 0.0
2016-Apr-20 22:27N 34°42' E 135°17'0 0.0
2016-Apr-20 21:33N 34°42' E 135°17'1110.9
2016-Apr-20 20:33N 34°35' E 135°07'  
Track history (hours):
 
Tides and Currents Weather Stations Pressure Air Temp Water Temp Dewpoint Dewpoint Depression Visibility Wind Speed Wind Dir Waves Ship Positions

Sunflower Gold

Last reported at 2016-Apr-29 12:16 UTC. Time now 2016-Apr-30 03:20 UTC.
Position N 34°35' E 134°52'.

Length 166 m; draft 5.8 m.

Type: Passenger vessel. MMSI: 431000331.

Date/timePositionNaut miles runAvg speedWind from/ knotsBaromVisibWave heightAir tempDewpointWater temp
2016-Apr-29 12:16N 34°35' E 134°52'1318.6
2016-Apr-29 11:33N 34°36' E 135°08'10 9.6
2016-Apr-29 10:33N 34°42' E 135°17'0 0.0
2016-Apr-29 09:29N 34°42' E 135°17'0 0.0
2016-Apr-29 08:29N 34°42' E 135°17'0 0.0
2016-Apr-29 07:29N 34°42' E 135°17'0 0.0
2016-Apr-29 06:29N 34°42' E 135°17'0 0.0
2016-Apr-29 05:29N 34°42' E 135°17'0 0.0
2016-Apr-29 04:05N 34°42' E 135°17'0 0.0
2016-Apr-29 03:29N 34°42' E 135°17'0 0.0
2016-Apr-29 02:11N 34°42' E 135°17'0 0.0
2016-Apr-29 01:29N 34°42' E 135°17'0 0.0
2016-Apr-29 00:29N 34°42' E 135°17'0 0.0
2016-Apr-28 23:23N 34°42' E 135°17'0 0.0
2016-Apr-28 22:29N 34°42' E 135°17'0 0.0
2016-Apr-28 21:32N 34°42' E 135°17'1212.4
2016-Apr-28 20:33N 34°34' E 135°06'12 0.4
2016-Apr-27 11:26N 34°35' E 134°51'1719.8
2016-Apr-27 10:33N 34°37' E 135°12'6 5.1
2016-Apr-27 09:19N 34°42' E 135°17'0 0.0
2016-Apr-27 08:19N 34°42' E 135°17'0 0.0
2016-Apr-27 07:25N 34°42' E 135°17'0 0.0
2016-Apr-27 06:31N 34°42' E 135°17'0 0.0
2016-Apr-27 05:31N 34°42' E 135°17'0 0.0
2016-Apr-27 04:25N 34°42' E 135°17'0 0.0
2016-Apr-27 03:31N 34°42' E 135°17'0 0.0
2016-Apr-27 02:31N 34°42' E 135°17'0 0.0
2016-Apr-27 01:31N 34°42' E 135°17'0 0.0
2016-Apr-27 00:25N 34°42' E 135°17'0 0.0
2016-Apr-26 23:31N 34°42' E 135°17'0 0.0
2016-Apr-26 22:31N 34°42' E 135°17'0 0.0
2016-Apr-26 21:33N 34°42' E 135°17'1110.6
2016-Apr-26 20:33N 34°34' E 135°08'14 0.4
2016-Apr-25 11:24N 34°35' E 134°52'1720.3
2016-Apr-25 10:33N 34°37' E 135°13'6 6.2
2016-Apr-25 09:32N 34°42' E 135°17'0 0.0
2016-Apr-25 08:32N 34°42' E 135°17'0 0.0
2016-Apr-25 07:14N 34°42' E 135°17'0 0.0
2016-Apr-25 06:32N 34°42' E 135°17'0 0.0
2016-Apr-25 05:26N 34°42' E 135°17'0 0.0
2016-Apr-25 04:32N 34°42' E 135°17'0 0.0
2016-Apr-25 03:32N 34°42' E 135°17'0 0.0
2016-Apr-25 02:32N 34°42' E 135°17'0 0.0
2016-Apr-25 01:32N 34°42' E 135°17'0 0.0
2016-Apr-25 00:32N 34°42' E 135°17'0 0.0
2016-Apr-24 23:32N 34°42' E 135°17'0 0.0
2016-Apr-24 22:32N 34°42' E 135°17'0 0.0
2016-Apr-24 21:33N 34°42' E 135°17'1211.9
2016-Apr-24 20:33N 34°34' E 135°06'15 0.5
2016-Apr-23 12:18N 34°34' E 134°48'1621.3
2016-Apr-23 11:33N 34°36' E 135°07'10 9.8
2016-Apr-23 10:33N 34°42' E 135°17'0 0.0
2016-Apr-23 09:31N 34°42' E 135°17'0 0.0
2016-Apr-23 08:31N 34°42' E 135°17'0 0.0
2016-Apr-23 07:13N 34°42' E 135°17'0 0.0
2016-Apr-23 06:25N 34°42' E 135°17'0 0.0
2016-Apr-23 04:31N 34°42' E 135°17'0 0.0
2016-Apr-23 03:31N 34°42' E 135°17'0 0.0
2016-Apr-23 02:31N 34°42' E 135°17'0 0.0
2016-Apr-23 01:28N 34°42' E 135°17'0 0.0
2016-Apr-23 00:28N 34°42' E 135°17'0 0.0
2016-Apr-22 23:34N 34°42' E 135°17'2 2.1
2016-Apr-22 22:34N 34°40' E 135°18'1414.2
2016-Apr-22 21:34N 34°36' E 135°02'11 0.3
2016-Apr-21 11:25N 34°34' E 134°49'1821.5
2016-Apr-21 10:33N 34°36' E 135°11'7 7.3
2016-Apr-21 09:33N 34°42' E 135°17'0 0.0
2016-Apr-21 08:33N 34°42' E 135°17'0 0.0
2016-Apr-21 07:33N 34°42' E 135°17'0 0.0
2016-Apr-21 06:33N 34°42' E 135°17'0 0.0
2016-Apr-21 05:33N 34°42' E 135°17'0 0.0
2016-Apr-21 04:33N 34°42' E 135°17'0 0.0
2016-Apr-21 03:33N 34°42' E 135°17'0 0.0
2016-Apr-21 02:27N 34°42' E 135°17'0 0.0
2016-Apr-21 01:33N 34°42' E 135°17'0 0.0
2016-Apr-21 00:33N 34°42' E 135°17'0 0.0
2016-Apr-20 23:33N 34°42' E 135°17'0 0.0
2016-Apr-20 22:27N 34°42' E 135°17'0 0.0
2016-Apr-20 21:33N 34°42' E 135°17'1110.9
2016-Apr-20 20:33N 34°35' E 135°07'  

Dump ship's entire track history